Terminal Aerodrome Forecast
Issued by NWS

Home | Current Version | Previous Version | Text Only | Print | Product List | Glossary On
Versions: 1 2 3 4 5 6 7 8 9 10 11 12 13
000
FTUS45 KABQ 181100
TAFAEG
TAF
KAEG 181140Z 1812/1912 30009KT P6SM VCSH BKN045
     FM181700 30014KT P6SM BKN060
     FM182000 30022G32KT P6SM BKN080
     FM190200 31013KT P6SM SCT120
     FM190900 33008KT P6SM FEW150=

USA.gov is the U.S. government's official web portal to all federal, state and local government web resources and services.